sensor_id;sensor_type;location;lat;lon;timestamp;P1;durP1;ratioP1;P2;durP2;ratioP2
61385;SDS011;47256;18.904;-99.054;2023-07-02T00:00:11;8.02;;;4.28;;
61385;SDS011;47256;18.904;-99.054;2023-07-02T00:02:38;9.90;;;4.35;;
61385;SDS011;47256;18.904;-99.054;2023-07-02T00:05:07;16.00;;;4.90;;
61385;SDS011;47256;18.904;-99.054;2023-07-02T00:07:34;8.05;;;3.05;;
61385;SDS011;47256;18.904;-99.054;2023-07-02T00:10:02;7.95;;;3.03;;
61385;SDS011;47256;18.904;-99.054;2023-07-02T00:12:29;5.65;;;2.70;;
61385;SDS011;47256;18.904;-99.054;2023-07-02T00:14:57;12.82;;;3.75;;
61385;SDS011;47256;18.904;-99.054;2023-07-02T00:17:24;12.77;;;3.08;;
61385;SDS011;47256;18.904;-99.054;2023-07-02T00:19:52;15.25;;;3.72;;
61385;SDS011;47256;18.904;-99.054;2023-07-02T00:22:19;12.00;;;4.10;;
61385;SDS011;47256;18.904;-99.054;2023-07-02T00:24:47;15.43;;;7.75;;
61385;SDS011;47256;18.904;-99.054;2023-07-02T00:27:17;16.85;;;8.25;;
61385;SDS011;47256;18.904;-99.054;2023-07-02T00:29:45;10.95;;;4.68;;
61385;SDS011;47256;18.904;-99.054;2023-07-02T00:32:12;11.52;;;4.05;;
61385;SDS011;47256;18.904;-99.054;2023-07-02T00:34:39;7.28;;;3.55;;
61385;SDS011;47256;18.904;-99.054;2023-07-02T00:37:07;13.45;;;3.05;;
61385;SDS011;47256;18.904;-99.054;2023-07-02T00:39:34;19.38;;;3.35;;
61385;SDS011;47256;18.904;-99.054;2023-07-02T00:42:02;10.07;;;3.47;;
61385;SDS011;47256;18.904;-99.054;2023-07-02T00:44:30;14.07;;;3.65;;
61385;SDS011;47256;18.904;-99.054;2023-07-02T00:46:57;15.20;;;3.88;;
61385;SDS011;47256;18.904;-99.054;2023-07-02T00:49:25;7.15;;;3.53;;
61385;SDS011;47256;18.904;-99.054;2023-07-02T00:51:52;8.50;;;3.05;;
61385;SDS011;47256;18.904;-99.054;2023-07-02T00:54:20;7.05;;;2.75;;
61385;SDS011;47256;18.904;-99.054;2023-07-02T00:56:47;7.30;;;3.47;;
61385;SDS011;47256;18.904;-99.054;2023-07-02T00:59:14;5.13;;;2.72;;
61385;SDS011;47256;18.904;-99.054;2023-07-02T01:01:42;4.40;;;3.17;;
61385;SDS011;47256;18.904;-99.054;2023-07-02T01:04:17;15.32;;;5.60;;
61385;SDS011;47256;18.904;-99.054;2023-07-02T01:06:44;12.98;;;3.42;;
61385;SDS011;47256;18.904;-99.054;2023-07-02T01:09:12;34.78;;;4.72;;
61385;SDS011;47256;18.904;-99.054;2023-07-02T01:11:49;24.48;;;5.47;;
61385;SDS011;47256;18.904;-99.054;2023-07-02T01:14:24;33.88;;;4.15;;
61385;SDS011;47256;18.904;-99.054;2023-07-02T01:16:55;43.25;;;5.22;;
61385;SDS011;47256;18.904;-99.054;2023-07-02T01:19:42;43.17;;;8.55;;
61385;SDS011;47256;18.904;-99.054;2023-07-02T01:22:17;50.75;;;7.95;;
61385;SDS011;47256;18.904;-99.054;2023-07-02T01:24:46;45.40;;;4.63;;
61385;SDS011;47256;18.904;-99.054;2023-07-02T01:27:15;40.03;;;5.85;;
61385;SDS011;47256;18.904;-99.054;2023-07-02T01:29:42;47.28;;;4.90;;
61385;SDS011;47256;18.904;-99.054;2023-07-02T01:32:14;22.10;;;4.60;;
61385;SDS011;47256;18.904;-99.054;2023-07-02T01:34:41;17.50;;;3.05;;
61385;SDS011;47256;18.904;-99.054;2023-07-02T01:37:14;16.95;;;3.63;;
61385;SDS011;47256;18.904;-99.054;2023-07-02T01:39:45;19.42;;;2.67;;
61385;SDS011;47256;18.904;-99.054;2023-07-02T01:42:13;23.95;;;3.10;;
61385;SDS011;47256;18.904;-99.054;2023-07-02T01:44:45;14.23;;;2.78;;
61385;SDS011;47256;18.904;-99.054;2023-07-02T01:47:14;11.93;;;4.53;;
61385;SDS011;47256;18.904;-99.054;2023-07-02T01:49:42;8.57;;;2.45;;
61385;SDS011;47256;18.904;-99.054;2023-07-02T01:52:09;6.05;;;2.30;;
61385;SDS011;47256;18.904;-99.054;2023-07-02T01:54:36;8.85;;;2.45;;
61385;SDS011;47256;18.904;-99.054;2023-07-02T01:57:05;16.42;;;3.00;;
61385;SDS011;47256;18.904;-99.054;2023-07-02T01:59:32;16.95;;;3.00;;
61385;SDS011;47256;18.904;-99.054;2023-07-02T02:01:59;13.75;;;3.28;;
61385;SDS011;47256;18.904;-99.054;2023-07-02T02:04:28;15.95;;;4.10;;
61385;SDS011;47256;18.904;-99.054;2023-07-02T02:06:55;11.07;;;3.35;;
61385;SDS011;47256;18.904;-99.054;2023-07-02T02:09:22;8.98;;;3.22;;
61385;SDS011;47256;18.904;-99.054;2023-07-02T02:11:49;15.35;;;3.75;;
61385;SDS011;47256;18.904;-99.054;2023-07-02T02:19:33;8.85;;;3.33;;
61385;SDS011;47256;18.904;-99.054;2023-07-02T02:22:01;13.65;;;4.95;;
61385;SDS011;47256;18.904;-99.054;2023-07-02T02:24:28;10.40;;;4.45;;
61385;SDS011;47256;18.904;-99.054;2023-07-02T02:26:56;7.97;;;5.30;;
61385;SDS011;47256;18.904;-99.054;2023-07-02T02:29:24;12.40;;;4.70;;
61385;SDS011;47256;18.904;-99.054;2023-07-02T02:31:52;13.85;;;5.15;;
61385;SDS011;47256;18.904;-99.054;2023-07-02T02:34:20;20.52;;;7.00;;
61385;SDS011;47256;18.904;-99.054;2023-07-02T02:36:48;13.38;;;6.18;;
61385;SDS011;47256;18.904;-99.054;2023-07-02T02:39:15;13.85;;;5.50;;
61385;SDS011;47256;18.904;-99.054;2023-07-02T02:41:44;15.00;;;5.35;;
61385;SDS011;47256;18.904;-99.054;2023-07-02T02:44:13;18.77;;;6.13;;
61385;SDS011;47256;18.904;-99.054;2023-07-02T02:46:41;18.60;;;6.20;;
61385;SDS011;47256;18.904;-99.054;2023-07-02T02:49:08;12.20;;;4.88;;
61385;SDS011;47256;18.904;-99.054;2023-07-02T02:51:36;10.88;;;5.07;;
61385;SDS011;47256;18.904;-99.054;2023-07-02T02:54:04;16.30;;;6.65;;
61385;SDS011;47256;18.904;-99.054;2023-07-02T02:56:31;12.57;;;7.63;;
61385;SDS011;47256;18.904;-99.054;2023-07-02T02:58:59;24.20;;;9.93;;
61385;SDS011;47256;18.904;-99.054;2023-07-02T03:01:26;17.67;;;8.98;;
61385;SDS011;47256;18.904;-99.054;2023-07-02T03:03:58;18.15;;;8.57;;
61385;SDS011;47256;18.904;-99.054;2023-07-02T03:06:25;18.08;;;9.27;;
61385;SDS011;47256;18.904;-99.054;2023-07-02T03:08:53;20.50;;;9.38;;
61385;SDS011;47256;18.904;-99.054;2023-07-02T03:11:20;12.68;;;6.20;;
61385;SDS011;47256;18.904;-99.054;2023-07-02T03:13:48;14.32;;;6.00;;
61385;SDS011;47256;18.904;-99.054;2023-07-02T03:16:15;8.57;;;5.10;;
61385;SDS011;47256;18.904;-99.054;2023-07-02T03:18:42;10.30;;;5.25;;
61385;SDS011;47256;18.904;-99.054;2023-07-02T03:21:10;14.25;;;4.80;;
61385;SDS011;47256;18.904;-99.054;2023-07-02T03:23:37;34.90;;;17.08;;
61385;SDS011;47256;18.904;-99.054;2023-07-02T03:26:05;22.67;;;8.60;;
61385;SDS011;47256;18.904;-99.054;2023-07-02T03:28:32;13.02;;;6.53;;
61385;SDS011;47256;18.904;-99.054;2023-07-02T03:31:01;9.95;;;5.38;;
61385;SDS011;47256;18.904;-99.054;2023-07-02T03:33:28;35.05;;;14.32;;
61385;SDS011;47256;18.904;-99.054;2023-07-02T03:35:55;22.05;;;11.23;;
61385;SDS011;47256;18.904;-99.054;2023-07-02T03:38:23;11.73;;;7.13;;
61385;SDS011;47256;18.904;-99.054;2023-07-02T03:40:51;8.85;;;6.03;;
61385;SDS011;47256;18.904;-99.054;2023-07-02T03:43:18;20.23;;;9.00;;
61385;SDS011;47256;18.904;-99.054;2023-07-02T03:45:45;11.73;;;6.70;;
61385;SDS011;47256;18.904;-99.054;2023-07-02T03:48:13;22.58;;;8.27;;
61385;SDS011;47256;18.904;-99.054;2023-07-02T03:50:40;11.00;;;4.30;;
61385;SDS011;47256;18.904;-99.054;2023-07-02T03:53:07;9.35;;;4.75;;
61385;SDS011;47256;18.904;-99.054;2023-07-02T03:55:35;13.98;;;8.20;;
61385;SDS011;47256;18.904;-99.054;2023-07-02T03:58:03;12.05;;;7.65;;
61385;SDS011;47256;18.904;-99.054;2023-07-02T04:00:30;16.38;;;7.30;;
61385;SDS011;47256;18.904;-99.054;2023-07-02T04:02:58;7.10;;;4.38;;
61385;SDS011;47256;18.904;-99.054;2023-07-02T04:05:25;10.32;;;3.90;;
61385;SDS011;47256;18.904;-99.054;2023-07-02T04:07:54;21.20;;;10.25;;
61385;SDS011;47256;18.904;-99.054;2023-07-02T04:10:21;15.75;;;7.20;;
61385;SDS011;47256;18.904;-99.054;2023-07-02T04:12:49;13.63;;;3.83;;
61385;SDS011;47256;18.904;-99.054;2023-07-02T04:15:16;13.88;;;4.85;;
61385;SDS011;47256;18.904;-99.054;2023-07-02T04:17:45;10.02;;;5.00;;
61385;SDS011;47256;18.904;-99.054;2023-07-02T04:20:13;15.15;;;5.60;;
61385;SDS011;47256;18.904;-99.054;2023-07-02T04:22:40;13.45;;;5.30;;
61385;SDS011;47256;18.904;-99.054;2023-07-02T04:25:07;10.40;;;4.93;;
61385;SDS011;47256;18.904;-99.054;2023-07-02T04:27:35;8.02;;;4.50;;
61385;SDS011;47256;18.904;-99.054;2023-07-02T04:30:02;6.40;;;4.07;;
61385;SDS011;47256;18.904;-99.054;2023-07-02T04:32:30;10.13;;;4.40;;
61385;SDS011;47256;18.904;-99.054;2023-07-02T04:34:58;7.78;;;3.67;;
61385;SDS011;47256;18.904;-99.054;2023-07-02T04:37:25;3.58;;;3.28;;
61385;SDS011;47256;18.904;-99.054;2023-07-02T04:39:54;6.03;;;4.13;;
61385;SDS011;47256;18.904;-99.054;2023-07-02T04:42:21;7.40;;;3.53;;
61385;SDS011;47256;18.904;-99.054;2023-07-02T04:44:54;7.57;;;4.68;;
61385;SDS011;47256;18.904;-99.054;2023-07-02T04:47:21;6.35;;;3.65;;
61385;SDS011;47256;18.904;-99.054;2023-07-02T04:49:48;6.50;;;4.35;;
61385;SDS011;47256;18.904;-99.054;2023-07-02T04:52:15;7.63;;;4.10;;
61385;SDS011;47256;18.904;-99.054;2023-07-02T04:54:43;11.23;;;4.80;;
61385;SDS011;47256;18.904;-99.054;2023-07-02T04:57:10;7.20;;;4.13;;
61385;SDS011;47256;18.904;-99.054;2023-07-02T04:59:39;9.63;;;4.07;;
61385;SDS011;47256;18.904;-99.054;2023-07-02T05:02:08;9.63;;;4.15;;
61385;SDS011;47256;18.904;-99.054;2023-07-02T05:04:36;9.60;;;3.65;;
61385;SDS011;47256;18.904;-99.054;2023-07-02T05:07:04;10.38;;;4.38;;
61385;SDS011;47256;18.904;-99.054;2023-07-02T05:09:31;8.73;;;4.65;;
61385;SDS011;47256;18.904;-99.054;2023-07-02T05:11:59;8.95;;;4.55;;
61385;SDS011;47256;18.904;-99.054;2023-07-02T05:14:26;8.48;;;4.47;;
61385;SDS011;47256;18.904;-99.054;2023-07-02T05:16:54;10.35;;;4.75;;
61385;SDS011;47256;18.904;-99.054;2023-07-02T05:19:21;10.00;;;4.38;;
61385;SDS011;47256;18.904;-99.054;2023-07-02T05:21:48;8.15;;;4.40;;
61385;SDS011;47256;18.904;-99.054;2023-07-02T05:24:15;6.80;;;3.80;;
61385;SDS011;47256;18.904;-99.054;2023-07-02T05:26:42;12.52;;;5.85;;
61385;SDS011;47256;18.904;-99.054;2023-07-02T05:29:10;12.50;;;6.70;;
61385;SDS011;47256;18.904;-99.054;2023-07-02T05:31:37;8.40;;;4.80;;
61385;SDS011;47256;18.904;-99.054;2023-07-02T05:34:05;8.07;;;4.57;;
61385;SDS011;47256;18.904;-99.054;2023-07-02T05:36:32;7.07;;;4.78;;
61385;SDS011;47256;18.904;-99.054;2023-07-02T05:39:00;7.78;;;4.88;;
61385;SDS011;47256;18.904;-99.054;2023-07-02T05:41:27;11.32;;;6.32;;
61385;SDS011;47256;18.904;-99.054;2023-07-02T05:43:57;8.95;;;5.93;;
61385;SDS011;47256;18.904;-99.054;2023-07-02T05:46:24;7.25;;;5.43;;
61385;SDS011;47256;18.904;-99.054;2023-07-02T05:48:52;15.45;;;6.10;;
61385;SDS011;47256;18.904;-99.054;2023-07-02T05:51:22;10.73;;;6.00;;
61385;SDS011;47256;18.904;-99.054;2023-07-02T05:53:51;9.35;;;6.47;;
61385;SDS011;47256;18.904;-99.054;2023-07-02T05:56:18;9.63;;;6.80;;
61385;SDS011;47256;18.904;-99.054;2023-07-02T05:58:46;11.88;;;7.57;;
61385;SDS011;47256;18.904;-99.054;2023-07-02T06:01:15;10.93;;;6.68;;
61385;SDS011;47256;18.904;-99.054;2023-07-02T06:03:45;14.13;;;7.28;;
61385;SDS011;47256;18.904;-99.054;2023-07-02T06:06:15;15.38;;;7.65;;
61385;SDS011;47256;18.904;-99.054;2023-07-02T06:08:42;13.93;;;7.60;;
61385;SDS011;47256;18.904;-99.054;2023-07-02T06:11:09;12.75;;;6.80;;
61385;SDS011;47256;18.904;-99.054;2023-07-02T06:13:37;16.73;;;7.93;;
61385;SDS011;47256;18.904;-99.054;2023-07-02T06:16:06;13.70;;;7.22;;
61385;SDS011;47256;18.904;-99.054;2023-07-02T06:18:33;16.67;;;6.60;;
61385;SDS011;47256;18.904;-99.054;2023-07-02T06:21:00;11.02;;;6.97;;
61385;SDS011;47256;18.904;-99.054;2023-07-02T06:23:29;10.50;;;6.35;;
61385;SDS011;47256;18.904;-99.054;2023-07-02T06:26:07;8.60;;;5.63;;
61385;SDS011;47256;18.904;-99.054;2023-07-02T06:28:35;9.93;;;6.03;;
61385;SDS011;47256;18.904;-99.054;2023-07-02T06:31:03;9.27;;;5.80;;
61385;SDS011;47256;18.904;-99.054;2023-07-02T06:33:30;6.32;;;4.97;;
61385;SDS011;47256;18.904;-99.054;2023-07-02T06:35:58;8.07;;;5.32;;
61385;SDS011;47256;18.904;-99.054;2023-07-02T06:38:25;10.43;;;6.55;;
61385;SDS011;47256;18.904;-99.054;2023-07-02T06:40:52;8.82;;;5.80;;
61385;SDS011;47256;18.904;-99.054;2023-07-02T06:43:19;10.43;;;5.97;;
61385;SDS011;47256;18.904;-99.054;2023-07-02T06:45:46;9.80;;;5.70;;
61385;SDS011;47256;18.904;-99.054;2023-07-02T06:48:13;7.50;;;6.03;;
61385;SDS011;47256;18.904;-99.054;2023-07-02T06:50:44;7.22;;;5.78;;
61385;SDS011;47256;18.904;-99.054;2023-07-02T06:53:12;7.57;;;5.70;;
61385;SDS011;47256;18.904;-99.054;2023-07-02T06:55:39;9.63;;;6.72;;
61385;SDS011;47256;18.904;-99.054;2023-07-02T06:58:06;6.80;;;6.10;;
61385;SDS011;47256;18.904;-99.054;2023-07-02T07:00:34;9.02;;;6.47;;
61385;SDS011;47256;18.904;-99.054;2023-07-02T07:03:02;8.38;;;6.57;;
61385;SDS011;47256;18.904;-99.054;2023-07-02T07:05:31;10.63;;;7.13;;
61385;SDS011;47256;18.904;-99.054;2023-07-02T07:07:59;7.72;;;5.88;;
61385;SDS011;47256;18.904;-99.054;2023-07-02T07:10:27;9.77;;;6.40;;
61385;SDS011;47256;18.904;-99.054;2023-07-02T07:12:54;10.80;;;6.72;;
61385;SDS011;47256;18.904;-99.054;2023-07-02T07:15:21;6.93;;;5.70;;
61385;SDS011;47256;18.904;-99.054;2023-07-02T07:17:52;7.20;;;6.00;;
61385;SDS011;47256;18.904;-99.054;2023-07-02T07:20:19;7.18;;;5.72;;
61385;SDS011;47256;18.904;-99.054;2023-07-02T07:22:46;55.00;;;49.90;;
61385;SDS011;47256;18.904;-99.054;2023-07-02T07:25:14;104.05;;;94.18;;
61385;SDS011;47256;18.904;-99.054;2023-07-02T07:27:41;94.38;;;85.07;;
61385;SDS011;47256;18.904;-99.054;2023-07-02T07:30:08;77.97;;;70.30;;
61385;SDS011;47256;18.904;-99.054;2023-07-02T07:32:36;28.20;;;22.42;;
61385;SDS011;47256;18.904;-99.054;2023-07-02T07:35:03;20.00;;;14.75;;
61385;SDS011;47256;18.904;-99.054;2023-07-02T07:37:30;12.70;;;9.80;;
61385;SDS011;47256;18.904;-99.054;2023-07-02T07:39:58;14.13;;;9.20;;
61385;SDS011;47256;18.904;-99.054;2023-07-02T07:42:25;13.00;;;9.10;;
61385;SDS011;47256;18.904;-99.054;2023-07-02T07:44:52;13.18;;;9.27;;
61385;SDS011;47256;18.904;-99.054;2023-07-02T07:47:19;11.27;;;7.85;;
61385;SDS011;47256;18.904;-99.054;2023-07-02T07:49:47;11.30;;;6.95;;
61385;SDS011;47256;18.904;-99.054;2023-07-02T07:52:14;9.52;;;7.32;;
61385;SDS011;47256;18.904;-99.054;2023-07-02T07:54:41;8.07;;;5.57;;
61385;SDS011;47256;18.904;-99.054;2023-07-02T07:57:09;7.20;;;4.82;;
61385;SDS011;47256;18.904;-99.054;2023-07-02T07:59:36;6.97;;;4.40;;
61385;SDS011;47256;18.904;-99.054;2023-07-02T08:02:03;5.78;;;3.78;;
61385;SDS011;47256;18.904;-99.054;2023-07-02T08:04:32;7.72;;;4.13;;
61385;SDS011;47256;18.904;-99.054;2023-07-02T08:07:00;7.55;;;4.00;;
61385;SDS011;47256;18.904;-99.054;2023-07-02T08:09:30;5.10;;;3.45;;
61385;SDS011;47256;18.904;-99.054;2023-07-02T08:11:57;5.40;;;4.10;;
61385;SDS011;47256;18.904;-99.054;2023-07-02T08:14:24;5.63;;;3.83;;
61385;SDS011;47256;18.904;-99.054;2023-07-02T08:16:52;6.85;;;4.15;;
61385;SDS011;47256;18.904;-99.054;2023-07-02T08:19:19;5.03;;;4.22;;
61385;SDS011;47256;18.904;-99.054;2023-07-02T08:21:48;7.90;;;5.22;;
61385;SDS011;47256;18.904;-99.054;2023-07-02T08:24:15;8.05;;;4.53;;
61385;SDS011;47256;18.904;-99.054;2023-07-02T08:26:42;3.47;;;3.15;;
61385;SDS011;47256;18.904;-99.054;2023-07-02T08:29:10;4.78;;;3.58;;
61385;SDS011;47256;18.904;-99.054;2023-07-02T08:31:37;4.30;;;2.92;;
61385;SDS011;47256;18.904;-99.054;2023-07-02T08:34:07;6.97;;;2.92;;
61385;SDS011;47256;18.904;-99.054;2023-07-02T08:36:34;3.38;;;2.83;;
61385;SDS011;47256;18.904;-99.054;2023-07-02T08:39:01;4.82;;;3.30;;
61385;SDS011;47256;18.904;-99.054;2023-07-02T08:41:29;5.03;;;2.63;;
61385;SDS011;47256;18.904;-99.054;2023-07-02T08:43:58;4.03;;;2.83;;
61385;SDS011;47256;18.904;-99.054;2023-07-02T08:46:25;2.83;;;2.28;;
61385;SDS011;47256;18.904;-99.054;2023-07-02T08:48:53;4.43;;;2.50;;
61385;SDS011;47256;18.904;-99.054;2023-07-02T08:51:20;3.28;;;2.78;;
61385;SDS011;47256;18.904;-99.054;2023-07-02T08:53:48;2.97;;;2.67;;
61385;SDS011;47256;18.904;-99.054;2023-07-02T08:56:17;5.63;;;3.17;;
61385;SDS011;47256;18.904;-99.054;2023-07-02T08:58:44;8.00;;;2.67;;
61385;SDS011;47256;18.904;-99.054;2023-07-02T09:01:12;4.63;;;3.17;;
61385;SDS011;47256;18.904;-99.054;2023-07-02T09:03:42;5.45;;;2.80;;
61385;SDS011;47256;18.904;-99.054;2023-07-02T09:06:10;4.00;;;3.17;;
61385;SDS011;47256;18.904;-99.054;2023-07-02T09:08:38;4.25;;;2.50;;
61385;SDS011;47256;18.904;-99.054;2023-07-02T09:11:06;3.40;;;2.88;;
61385;SDS011;47256;18.904;-99.054;2023-07-02T09:13:46;5.63;;;3.80;;
61385;SDS011;47256;18.904;-99.054;2023-07-02T09:16:30;3.30;;;3.00;;
61385;SDS011;47256;18.904;-99.054;2023-07-02T09:19:01;3.22;;;2.90;;
61385;SDS011;47256;18.904;-99.054;2023-07-02T09:21:46;3.53;;;3.08;;
61385;SDS011;47256;18.904;-99.054;2023-07-02T09:24:15;9.73;;;3.50;;
61385;SDS011;47256;18.904;-99.054;2023-07-02T09:26:48;3.92;;;3.53;;
61385;SDS011;47256;18.904;-99.054;2023-07-02T09:29:27;6.05;;;3.25;;
61385;SDS011;47256;18.904;-99.054;2023-07-02T09:32:07;4.43;;;3.38;;
61385;SDS011;47256;18.904;-99.054;2023-07-02T09:34:35;4.90;;;3.30;;
61385;SDS011;47256;18.904;-99.054;2023-07-02T09:37:04;5.13;;;3.70;;
61385;SDS011;47256;18.904;-99.054;2023-07-02T09:39:33;3.97;;;3.58;;
61385;SDS011;47256;18.904;-99.054;2023-07-02T09:42:02;5.10;;;3.40;;
61385;SDS011;47256;18.904;-99.054;2023-07-02T09:44:33;4.00;;;3.60;;
61385;SDS011;47256;18.904;-99.054;2023-07-02T09:47:07;4.05;;;3.65;;
61385;SDS011;47256;18.904;-99.054;2023-07-02T09:49:55;6.68;;;4.05;;
61385;SDS011;47256;18.904;-99.054;2023-07-02T09:52:29;4.97;;;3.42;;
61385;SDS011;47256;18.904;-99.054;2023-07-02T09:54:56;4.32;;;3.67;;
61385;SDS011;47256;18.904;-99.054;2023-07-02T09:57:24;3.90;;;3.60;;
61385;SDS011;47256;18.904;-99.054;2023-07-02T09:59:53;4.22;;;3.72;;
61385;SDS011;47256;18.904;-99.054;2023-07-02T10:02:21;4.43;;;3.92;;
61385;SDS011;47256;18.904;-99.054;2023-07-02T10:04:48;6.68;;;4.00;;
61385;SDS011;47256;18.904;-99.054;2023-07-02T10:07:30;6.75;;;3.95;;
61385;SDS011;47256;18.904;-99.054;2023-07-02T10:10:01;6.25;;;4.38;;
61385;SDS011;47256;18.904;-99.054;2023-07-02T10:12:29;5.90;;;3.70;;
61385;SDS011;47256;18.904;-99.054;2023-07-02T10:14:57;5.15;;;4.60;;
61385;SDS011;47256;18.904;-99.054;2023-07-02T10:17:32;5.72;;;4.35;;
61385;SDS011;47256;18.904;-99.054;2023-07-02T10:20:02;7.45;;;4.53;;
61385;SDS011;47256;18.904;-99.054;2023-07-02T10:27:41;6.85;;;3.70;;
61385;SDS011;47256;18.904;-99.054;2023-07-02T10:30:09;7.82;;;4.63;;
61385;SDS011;47256;18.904;-99.054;2023-07-02T10:32:37;7.38;;;4.38;;
61385;SDS011;47256;18.904;-99.054;2023-07-02T10:35:14;6.13;;;3.80;;
61385;SDS011;47256;18.904;-99.054;2023-07-02T10:37:46;3.67;;;3.28;;
61385;SDS011;47256;18.904;-99.054;2023-07-02T10:40:13;3.60;;;3.25;;
61385;SDS011;47256;18.904;-99.054;2023-07-02T10:42:45;4.40;;;4.00;;
61385;SDS011;47256;18.904;-99.054;2023-07-02T10:45:13;4.13;;;3.72;;
61385;SDS011;47256;18.904;-99.054;2023-07-02T10:47:41;4.13;;;3.72;;
61385;SDS011;47256;18.904;-99.054;2023-07-02T10:50:15;4.82;;;3.88;;
61385;SDS011;47256;18.904;-99.054;2023-07-02T10:52:44;4.60;;;4.03;;
61385;SDS011;47256;18.904;-99.054;2023-07-02T10:55:21;5.45;;;3.45;;
61385;SDS011;47256;18.904;-99.054;2023-07-02T10:57:50;4.22;;;3.70;;
61385;SDS011;47256;18.904;-99.054;2023-07-02T11:00:29;4.95;;;4.15;;
61385;SDS011;47256;18.904;-99.054;2023-07-02T11:02:58;5.32;;;4.07;;
61385;SDS011;47256;18.904;-99.054;2023-07-02T11:05:26;4.43;;;4.00;;
61385;SDS011;47256;18.904;-99.054;2023-07-02T11:07:54;4.38;;;3.97;;
61385;SDS011;47256;18.904;-99.054;2023-07-02T11:10:23;7.22;;;3.85;;
61385;SDS011;47256;18.904;-99.054;2023-07-02T11:12:51;4.93;;;4.25;;
61385;SDS011;47256;18.904;-99.054;2023-07-02T11:15:18;5.22;;;4.35;;
61385;SDS011;47256;18.904;-99.054;2023-07-02T11:17:46;5.18;;;4.40;;
61385;SDS011;47256;18.904;-99.054;2023-07-02T11:20:14;5.82;;;5.07;;
61385;SDS011;47256;18.904;-99.054;2023-07-02T11:22:41;5.03;;;4.53;;
61385;SDS011;47256;18.904;-99.054;2023-07-02T11:25:19;6.35;;;4.93;;
61385;SDS011;47256;18.904;-99.054;2023-07-02T11:27:48;6.72;;;5.40;;
61385;SDS011;47256;18.904;-99.054;2023-07-02T11:30:15;5.57;;;5.07;;
61385;SDS011;47256;18.904;-99.054;2023-07-02T11:32:49;8.15;;;4.80;;
61385;SDS011;47256;18.904;-99.054;2023-07-02T11:35:18;5.38;;;4.88;;
61385;SDS011;47256;18.904;-99.054;2023-07-02T11:37:46;6.13;;;5.20;;
61385;SDS011;47256;18.904;-99.054;2023-07-02T11:40:17;6.30;;;5.70;;
61385;SDS011;47256;18.904;-99.054;2023-07-02T11:42:46;7.13;;;6.35;;
61385;SDS011;47256;18.904;-99.054;2023-07-02T11:45:13;7.78;;;6.07;;
61385;SDS011;47256;18.904;-99.054;2023-07-02T11:47:40;7.88;;;7.10;;
61385;SDS011;47256;18.904;-99.054;2023-07-02T11:50:08;8.70;;;6.82;;
61385;SDS011;47256;18.904;-99.054;2023-07-02T11:52:36;10.82;;;7.93;;
61385;SDS011;47256;18.904;-99.054;2023-07-02T11:55:04;10.43;;;8.85;;
61385;SDS011;47256;18.904;-99.054;2023-07-02T11:57:31;12.02;;;8.80;;
61385;SDS011;47256;18.904;-99.054;2023-07-02T11:59:58;10.13;;;8.25;;
61385;SDS011;47256;18.904;-99.054;2023-07-02T12:02:26;14.52;;;10.63;;
61385;SDS011;47256;18.904;-99.054;2023-07-02T12:04:54;13.75;;;12.15;;
61385;SDS011;47256;18.904;-99.054;2023-07-02T12:07:22;12.68;;;10.90;;
61385;SDS011;47256;18.904;-99.054;2023-07-02T12:09:51;14.60;;;11.10;;
61385;SDS011;47256;18.904;-99.054;2023-07-02T12:12:18;13.10;;;11.70;;
61385;SDS011;47256;18.904;-99.054;2023-07-02T12:14:47;14.07;;;11.80;;
61385;SDS011;47256;18.904;-99.054;2023-07-02T12:17:15;13.82;;;12.05;;
61385;SDS011;47256;18.904;-99.054;2023-07-02T12:19:42;14.00;;;11.85;;
61385;SDS011;47256;18.904;-99.054;2023-07-02T12:22:10;12.35;;;11.15;;
61385;SDS011;47256;18.904;-99.054;2023-07-02T12:24:37;14.45;;;11.90;;
61385;SDS011;47256;18.904;-99.054;2023-07-02T12:27:04;13.75;;;11.93;;
61385;SDS011;47256;18.904;-99.054;2023-07-02T12:29:31;16.10;;;12.00;;
61385;SDS011;47256;18.904;-99.054;2023-07-02T12:31:59;12.38;;;11.07;;
61385;SDS011;47256;18.904;-99.054;2023-07-02T12:34:26;12.48;;;10.95;;
61385;SDS011;47256;18.904;-99.054;2023-07-02T12:36:55;13.75;;;12.45;;
61385;SDS011;47256;18.904;-99.054;2023-07-02T12:39:22;12.57;;;11.25;;
61385;SDS011;47256;18.904;-99.054;2023-07-02T12:41:50;14.77;;;11.50;;
61385;SDS011;47256;18.904;-99.054;2023-07-02T12:44:17;12.75;;;11.43;;
61385;SDS011;47256;18.904;-99.054;2023-07-02T12:46:44;14.70;;;11.77;;
61385;SDS011;47256;18.904;-99.054;2023-07-02T12:49:11;14.85;;;12.10;;
61385;SDS011;47256;18.904;-99.054;2023-07-02T12:51:39;12.65;;;11.20;;
61385;SDS011;47256;18.904;-99.054;2023-07-02T12:54:06;13.52;;;10.73;;
61385;SDS011;47256;18.904;-99.054;2023-07-02T12:56:33;11.25;;;10.25;;
61385;SDS011;47256;18.904;-99.054;2023-07-02T12:59:01;11.43;;;10.15;;
61385;SDS011;47256;18.904;-99.054;2023-07-02T13:01:29;10.90;;;9.32;;
61385;SDS011;47256;18.904;-99.054;2023-07-02T13:03:57;14.80;;;10.52;;
61385;SDS011;47256;18.904;-99.054;2023-07-02T13:06:25;11.98;;;10.65;;
61385;SDS011;47256;18.904;-99.054;2023-07-02T13:08:53;12.63;;;10.93;;
61385;SDS011;47256;18.904;-99.054;2023-07-02T13:11:21;13.50;;;11.48;;
61385;SDS011;47256;18.904;-99.054;2023-07-02T13:13:49;14.20;;;11.80;;
61385;SDS011;47256;18.904;-99.054;2023-07-02T13:16:16;15.25;;;11.35;;
61385;SDS011;47256;18.904;-99.054;2023-07-02T13:18:44;13.38;;;11.40;;
61385;SDS011;47256;18.904;-99.054;2023-07-02T13:21:11;13.60;;;11.15;;
61385;SDS011;47256;18.904;-99.054;2023-07-02T13:23:38;13.32;;;11.95;;
61385;SDS011;47256;18.904;-99.054;2023-07-02T13:26:06;13.13;;;11.82;;
61385;SDS011;47256;18.904;-99.054;2023-07-02T13:28:33;12.35;;;10.75;;
61385;SDS011;47256;18.904;-99.054;2023-07-02T13:31:00;14.13;;;12.10;;
61385;SDS011;47256;18.904;-99.054;2023-07-02T13:33:27;12.70;;;11.43;;
61385;SDS011;47256;18.904;-99.054;2023-07-02T13:35:57;11.93;;;10.75;;
61385;SDS011;47256;18.904;-99.054;2023-07-02T13:38:24;13.90;;;12.40;;
61385;SDS011;47256;18.904;-99.054;2023-07-02T13:40:52;12.65;;;11.38;;
61385;SDS011;47256;18.904;-99.054;2023-07-02T13:43:19;20.52;;;14.45;;
61385;SDS011;47256;18.904;-99.054;2023-07-02T13:45:47;13.27;;;11.88;;
61385;SDS011;47256;18.904;-99.054;2023-07-02T13:48:14;16.58;;;12.07;;
61385;SDS011;47256;18.904;-99.054;2023-07-02T13:50:42;15.68;;;11.48;;
61385;SDS011;47256;18.904;-99.054;2023-07-02T13:53:09;13.05;;;11.75;;
61385;SDS011;47256;18.904;-99.054;2023-07-02T13:55:36;11.75;;;10.52;;
61385;SDS011;47256;18.904;-99.054;2023-07-02T13:58:04;11.40;;;9.88;;
61385;SDS011;47256;18.904;-99.054;2023-07-02T14:00:31;8.45;;;7.65;;
61385;SDS011;47256;18.904;-99.054;2023-07-02T14:03:00;10.07;;;7.65;;
61385;SDS011;47256;18.904;-99.054;2023-07-02T14:05:27;8.90;;;7.47;;
61385;SDS011;47256;18.904;-99.054;2023-07-02T14:07:56;8.23;;;7.35;;
61385;SDS011;47256;18.904;-99.054;2023-07-02T14:10:23;9.38;;;7.95;;
61385;SDS011;47256;18.904;-99.054;2023-07-02T14:12:54;10.32;;;8.10;;
61385;SDS011;47256;18.904;-99.054;2023-07-02T14:15:21;15.98;;;11.05;;
61385;SDS011;47256;18.904;-99.054;2023-07-02T14:17:49;14.75;;;13.27;;
61385;SDS011;47256;18.904;-99.054;2023-07-02T14:20:17;11.18;;;9.98;;
61385;SDS011;47256;18.904;-99.054;2023-07-02T14:22:45;11.32;;;8.15;;
61385;SDS011;47256;18.904;-99.054;2023-07-02T14:25:12;10.07;;;8.55;;
61385;SDS011;47256;18.904;-99.054;2023-07-02T14:27:40;12.95;;;8.40;;
61385;SDS011;47256;18.904;-99.054;2023-07-02T14:30:13;10.10;;;9.10;;